Time;durP1;ratioP1;P1;durP2;ratioP2;P2;SDS_P1;SDS_P2;PMS_P1;PMS_P2;Temp;Humidity;BMP_temperature;BMP_pressure;BME280_temperature;BME280_humidity;BME280_pressure;Samples;Min_cycle;Max_cycle;Signal;HPM_P1;HPM_P2
2023/12/16 00:00:08;;;;;;;12.93;3.25;;;7.40;99.90;;;;;;5044540;28;20128;-73
2023/12/16 00:02:33;;;;;;;8.40;3.25;;;7.50;99.90;;;;;;5040500;28;20045;-73
2023/12/16 00:04:59;;;;;;;10.07;2.80;;;7.40;99.90;;;;;;5046698;28;20040;-73
2023/12/16 00:07:24;;;;;;;8.88;3.13;;;7.50;99.90;;;;;;5049136;28;20427;-73
2023/12/16 00:09:50;;;;;;;12.93;3.15;;;7.40;99.90;;;;;;5044306;28;20045;-73
2023/12/16 00:12:17;;;;;;;9.05;3.17;;;7.50;99.90;;;;;;5043881;28;20120;-73
2023/12/16 00:14:42;;;;;;;11.13;3.08;;;7.50;99.90;;;;;;5047032;28;20049;-73
2023/12/16 00:17:08;;;;;;;9.00;2.78;;;7.50;99.90;;;;;;5048684;28;20102;-73
2023/12/16 00:19:33;;;;;;;11.65;3.05;;;7.50;99.90;;;;;;5049124;28;20472;-73
2023/12/16 00:22:00;;;;;;;8.63;3.13;;;7.50;99.90;;;;;;5050278;28;20119;-73
2023/12/16 00:24:25;;;;;;;12.85;3.20;;;7.50;99.90;;;;;;5049600;28;20492;-73
2023/12/16 00:26:51;;;;;;;11.40;3.20;;;7.50;99.90;;;;;;5047269;28;20056;-73
2023/12/16 00:29:17;;;;;;;11.25;2.80;;;7.50;99.90;;;;;;5048512;28;20041;-73
2023/12/16 00:31:43;;;;;;;9.38;2.55;;;7.50;99.90;;;;;;5041356;28;20056;-74
2023/12/16 00:34:10;;;;;;;13.23;2.95;;;7.50;99.90;;;;;;5041114;28;20045;-73
2023/12/16 00:36:36;;;;;;;9.55;2.88;;;7.50;99.90;;;;;;5049457;28;20068;-74
2023/12/16 00:39:02;;;;;;;10.07;2.90;;;7.50;99.90;;;;;;5047036;28;20158;-73
2023/12/16 00:41:29;;;;;;;6.30;2.67;;;7.60;99.90;;;;;;5045555;28;20606;-74
2023/12/16 00:43:55;;;;;;;10.98;2.53;;;7.50;99.90;;;;;;5046708;28;20041;-73
2023/12/16 00:46:20;;;;;;;13.57;2.85;;;7.60;99.90;;;;;;5046118;28;20041;-73
2023/12/16 00:48:46;;;;;;;14.63;3.42;;;7.60;99.90;;;;;;5049564;28;20459;-73
2023/12/16 00:51:11;;;;;;;12.75;3.50;;;7.60;99.90;;;;;;5050787;28;20036;-73
2023/12/16 00:53:37;;;;;;;9.35;3.05;;;7.60;99.90;;;;;;5045796;28;20044;-73
2023/12/16 00:56:03;;;;;;;9.50;3.20;;;7.50;99.90;;;;;;5064103;28;20083;-73
2023/12/16 00:58:29;;;;;;;12.60;3.03;;;7.60;99.90;;;;;;5044760;28;20106;-73
2023/12/16 01:00:54;;;;;;;12.85;3.08;;;7.60;99.90;;;;;;5045233;28;20108;-73
2023/12/16 01:03:20;;;;;;;10.63;2.88;;;7.60;99.90;;;;;;5044545;28;20107;-73
2023/12/16 01:05:45;;;;;;;12.00;3.13;;;7.60;99.90;;;;;;5044127;28;20064;-73
2023/12/16 01:08:11;;;;;;;9.43;3.03;;;7.60;99.90;;;;;;5042242;28;20508;-73
2023/12/16 01:10:38;;;;;;;10.30;2.95;;;7.50;99.90;;;;;;5039832;28;20134;-74
2023/12/16 01:13:04;;;;;;;13.10;3.70;;;7.60;99.90;;;;;;5041664;28;20067;-73
2023/12/16 01:15:30;;;;;;;12.60;2.70;;;7.60;99.90;;;;;;5042536;28;20111;-73
2023/12/16 01:17:55;;;;;;;7.00;2.80;;;7.60;99.90;;;;;;5047124;28;20040;-73
2023/12/16 01:20:21;;;;;;;10.63;3.33;;;7.60;99.90;;;;;;5043804;28;20120;-73
2023/12/16 01:22:46;;;;;;;14.35;3.05;;;7.60;99.90;;;;;;5051296;28;20400;-73
2023/12/16 01:25:12;;;;;;;10.32;3.25;;;7.60;99.90;;;;;;5043307;28;20052;-73
2023/12/16 01:27:38;;;;;;;13.98;2.50;;;7.60;99.90;;;;;;5049014;28;20488;-73
2023/12/16 01:30:04;;;;;;;12.00;2.67;;;7.60;99.90;;;;;;5045656;28;20073;-73
2023/12/16 01:32:30;;;;;;;12.07;3.30;;;7.50;99.90;;;;;;5048917;28;20045;-73
2023/12/16 01:34:56;;;;;;;10.00;3.05;;;7.50;99.90;;;;;;5044895;28;20037;-73
2023/12/16 01:37:21;;;;;;;10.27;2.80;;;7.50;99.90;;;;;;5049725;28;20114;-73
2023/12/16 01:39:47;;;;;;;13.52;2.42;;;7.50;99.90;;;;;;5047176;28;20373;-73
2023/12/16 01:42:13;;;;;;;8.27;2.90;;;7.50;99.90;;;;;;5047153;28;20098;-73
2023/12/16 01:44:38;;;;;;;10.48;2.53;;;7.50;99.90;;;;;;5042918;28;20047;-73
2023/12/16 01:47:04;;;;;;;8.57;2.55;;;7.50;99.90;;;;;;5045774;28;20556;-73
2023/12/16 01:49:31;;;;;;;12.45;2.63;;;7.40;99.90;;;;;;5073415;28;20070;-73
2023/12/16 01:51:57;;;;;;;8.90;2.53;;;7.50;99.90;;;;;;5049155;28;20121;-73
2023/12/16 01:54:24;;;;;;;10.15;2.45;;;7.50;99.90;;;;;;5048561;28;20698;-73
2023/12/16 01:56:55;;;;;;;;;;;7.40;99.90;;;;;;5051602;28;20493;-73
2023/12/16 01:59:21;;;;;;;7.25;2.10;;;7.40;99.90;;;;;;5050289;28;19990;-73
2023/12/16 02:01:46;;;;;;;11.07;2.80;;;7.40;99.90;;;;;;5039648;28;21799;-73
2023/12/16 02:04:14;;;;;;;8.43;2.40;;;7.40;99.90;;;;;;5044820;28;20135;-73
2023/12/16 02:06:39;;;;;;;9.57;2.63;;;7.40;99.90;;;;;;5047003;28;20056;-73
2023/12/16 02:09:06;;;;;;;12.10;2.80;;;7.30;99.90;;;;;;5039673;28;20036;-74
2023/12/16 02:11:32;;;;;;;6.83;2.80;;;7.30;99.90;;;;;;5046287;28;20049;-73
2023/12/16 02:13:57;;;;;;;11.48;3.25;;;7.20;99.90;;;;;;5043972;28;20664;-73
2023/12/16 02:16:23;;;;;;;6.05;2.08;;;7.20;99.90;;;;;;5049656;28;20048;-73
2023/12/16 02:18:49;;;;;;;14.57;2.90;;;7.20;99.90;;;;;;5045945;28;20045;-73
2023/12/16 02:21:15;;;;;;;10.65;2.72;;;7.20;99.90;;;;;;5042443;28;20056;-73
2023/12/16 02:23:41;;;;;;;8.13;2.90;;;7.10;99.90;;;;;;5047911;28;20040;-73
2023/12/16 02:26:07;;;;;;;6.32;2.80;;;7.10;99.90;;;;;;5045372;28;20507;-73
2023/12/16 02:28:33;;;;;;;11.07;2.85;;;7.00;99.90;;;;;;5042793;28;20048;-73
2023/12/16 02:30:59;;;;;;;10.48;2.50;;;7.00;99.90;;;;;;5046643;28;20049;-73
2023/12/16 02:33:24;;;;;;;13.25;3.30;;;6.90;99.90;;;;;;5043394;28;20041;-73
2023/12/16 02:35:50;;;;;;;7.78;3.15;;;6.90;99.90;;;;;;5071738;28;20382;-73
2023/12/16 02:38:15;;;;;;;9.68;2.72;;;6.90;99.90;;;;;;5044009;28;20114;-73
2023/12/16 02:40:42;;;;;;;10.50;2.63;;;6.90;99.90;;;;;;5049334;28;20033;-73
2023/12/16 02:43:11;;;;;;;10.45;3.10;;;6.80;99.90;;;;;;5041979;28;20049;-73
2023/12/16 02:45:37;;;;;;;10.23;3.17;;;6.80;99.90;;;;;;5046732;28;20041;-73
2023/12/16 02:48:03;;;;;;;10.85;3.00;;;6.80;99.90;;;;;;5043250;28;20135;-73
2023/12/16 02:50:29;;;;;;;15.10;3.88;;;6.70;99.90;;;;;;5046520;28;20472;-73
2023/12/16 02:52:55;;;;;;;10.02;3.03;;;6.70;99.90;;;;;;5048960;28;20049;-73
2023/12/16 02:55:20;;;;;;;13.02;3.58;;;6.70;99.90;;;;;;5040621;28;20048;-73
2023/12/16 02:57:46;;;;;;;12.85;3.05;;;6.80;99.90;;;;;;5043538;28;20155;-73
2023/12/16 03:00:12;;;;;;;10.35;2.88;;;6.70;99.90;;;;;;5053089;28;20099;-73
2023/12/16 03:02:37;;;;;;;12.38;3.60;;;6.70;99.90;;;;;;5046897;28;20049;-73
2023/12/16 03:05:03;;;;;;;11.93;3.58;;;6.60;99.90;;;;;;5041593;28;20060;-73
2023/12/16 03:07:29;;;;;;;12.40;2.70;;;6.60;99.90;;;;;;5036878;28;20045;-73
2023/12/16 03:09:55;;;;;;;9.73;2.90;;;6.60;99.90;;;;;;5046821;28;20076;-73
2023/12/16 03:12:20;;;;;;;13.23;2.55;;;6.60;99.90;;;;;;5042087;28;20552;-74
2023/12/16 03:14:46;;;;;;;11.57;3.33;;;6.60;99.90;;;;;;5043757;28;20041;-73
2023/12/16 03:17:12;;;;;;;15.30;3.22;;;6.60;99.90;;;;;;5044648;28;20041;-73
2023/12/16 03:19:38;;;;;;;14.10;3.03;;;6.60;99.90;;;;;;5042986;28;20033;-72
2023/12/16 03:22:04;;;;;;;11.40;3.20;;;6.60;99.90;;;;;;5044992;28;20488;-73
2023/12/16 03:24:29;;;;;;;11.40;3.30;;;6.60;99.90;;;;;;5047014;28;20102;-73
2023/12/16 03:26:55;;;;;;;9.27;2.58;;;6.60;99.90;;;;;;5047361;28;20044;-73
2023/12/16 03:29:21;;;;;;;9.05;2.95;;;6.60;99.90;;;;;;5046776;28;20664;-73
2023/12/16 03:31:46;;;;;;;13.55;3.63;;;6.50;99.90;;;;;;5037662;28;20575;-73
2023/12/16 03:34:12;;;;;;;11.63;2.60;;;6.50;99.90;;;;;;5040332;28;20053;-73
2023/12/16 03:36:37;;;;;;;10.18;2.42;;;6.50;99.90;;;;;;5046813;28;20041;-73
2023/12/16 03:39:06;;;;;;;12.15;3.00;;;6.50;99.90;;;;;;5039097;28;20076;-73
2023/12/16 03:41:33;;;;;;;8.80;2.78;;;6.50;99.90;;;;;;5046644;28;20122;-73
2023/12/16 03:44:00;;;;;;;9.65;3.10;;;6.50;99.90;;;;;;5043622;28;20070;-73
2023/12/16 03:46:26;;;;;;;9.65;2.97;;;6.50;99.90;;;;;;5050595;28;20041;-73
2023/12/16 03:48:52;;;;;;;10.07;2.42;;;6.50;99.90;;;;;;5050467;28;20045;-72
2023/12/16 03:51:21;;;;;;;9.15;3.00;;;6.40;99.90;;;;;;5044578;28;20052;-73
2023/12/16 03:53:46;;;;;;;8.40;2.53;;;6.40;99.90;;;;;;5045008;28;20057;-73
2023/12/16 03:56:12;;;;;;;7.18;2.45;;;6.40;99.90;;;;;;5052704;28;20099;-73
2023/12/16 03:58:38;;;;;;;9.23;2.20;;;6.40;99.90;;;;;;5049134;28;20053;-73
2023/12/16 04:01:05;;;;;;;11.18;2.90;;;6.40;99.90;;;;;;5049825;28;20115;-73
2023/12/16 04:03:30;;;;;;;12.52;2.40;;;6.40;99.90;;;;;;5048364;28;20072;-73
2023/12/16 04:05:56;;;;;;;11.35;2.85;;;6.40;99.90;;;;;;5043083;28;20132;-73
2023/12/16 04:08:22;;;;;;;15.00;3.00;;;6.30;99.90;;;;;;5049097;28;20052;-73
2023/12/16 04:10:48;;;;;;;11.32;2.72;;;6.30;99.90;;;;;;5045855;28;20045;-73
2023/12/16 04:13:15;;;;;;;16.95;3.17;;;6.40;99.90;;;;;;5044990;28;20083;-73
2023/12/16 04:15:40;;;;;;;9.25;2.42;;;6.30;99.90;;;;;;5047590;28;20048;-73
2023/12/16 04:18:06;;;;;;;16.10;3.15;;;6.30;99.90;;;;;;5046428;28;20025;-74
2023/12/16 04:20:32;;;;;;;18.67;3.75;;;6.30;99.90;;;;;;5048497;28;20127;-74
2023/12/16 04:22:58;;;;;;;15.52;3.20;;;6.30;99.90;;;;;;5043137;28;20056;-74
2023/12/16 04:25:23;;;;;;;11.40;2.88;;;6.30;99.90;;;;;;5050332;28;20147;-74
2023/12/16 04:27:49;;;;;;;9.95;2.83;;;6.30;99.90;;;;;;5048202;28;20040;-74
2023/12/16 04:30:15;;;;;;;15.27;3.35;;;6.30;99.90;;;;;;5047846;28;20048;-74
2023/12/16 04:32:40;;;;;;;7.85;2.25;;;6.30;99.90;;;;;;5049738;28;20049;-73
2023/12/16 04:35:06;;;;;;;10.93;3.58;;;6.30;99.90;;;;;;5046522;28;20044;-73
2023/12/16 04:37:32;;;;;;;10.38;2.75;;;6.30;99.90;;;;;;5049653;28;20133;-73
2023/12/16 04:39:57;;;;;;;10.48;2.92;;;6.30;99.90;;;;;;5043318;28;20175;-73
2023/12/16 04:42:23;;;;;;;11.40;2.55;;;6.30;99.90;;;;;;5049573;28;20069;-73
2023/12/16 04:44:49;;;;;;;14.63;3.10;;;6.30;99.90;;;;;;5047078;28;20037;-73
2023/12/16 04:47:14;;;;;;;7.55;2.70;;;6.20;99.90;;;;;;5044429;28;21231;-73
2023/12/16 04:49:40;;;;;;;9.80;2.22;;;6.20;99.90;;;;;;5041552;28;20440;-73
2023/12/16 04:52:06;;;;;;;15.30;3.13;;;6.20;99.90;;;;;;5048130;28;20049;-73
2023/12/16 04:54:32;;;;;;;12.05;3.20;;;6.20;99.90;;;;;;5048613;28;20067;-73
2023/12/16 04:56:57;;;;;;;11.35;3.28;;;6.20;99.90;;;;;;5045778;28;21181;-73
2023/12/16 04:59:23;;;;;;;11.63;3.15;;;6.20;99.90;;;;;;5048851;28;20029;-73
2023/12/16 05:01:49;;;;;;;11.68;2.80;;;6.10;99.90;;;;;;5046159;28;20053;-73
2023/12/16 05:04:15;;;;;;;17.08;3.40;;;6.10;99.90;;;;;;5041567;28;20098;-73
2023/12/16 05:06:41;;;;;;;10.23;3.75;;;6.10;99.90;;;;;;5043737;28;20061;-73
2023/12/16 05:09:10;;;;;;;17.50;3.53;;;6.10;99.90;;;;;;5042295;28;20396;-73
2023/12/16 05:11:35;;;;;;;13.52;3.40;;;6.10;99.90;;;;;;5047584;28;20122;-73
2023/12/16 05:14:01;;;;;;;9.57;3.42;;;6.10;99.90;;;;;;5062235;28;20084;-73
2023/12/16 05:16:27;;;;;;;14.65;3.90;;;6.10;99.90;;;;;;5049568;28;20036;-73
2023/12/16 05:18:54;;;;;;;14.88;4.03;;;6.00;99.90;;;;;;5047480;28;20059;-73
2023/12/16 05:21:20;;;;;;;10.43;3.35;;;6.10;99.90;;;;;;5046307;28;20041;-73
2023/12/16 05:23:46;;;;;;;10.65;3.92;;;6.00;99.90;;;;;;5044078;28;20194;-73
2023/12/16 05:26:11;;;;;;;11.88;3.63;;;6.00;99.90;;;;;;5042624;28;20488;-73
2023/12/16 05:28:37;;;;;;;11.35;3.65;;;6.00;99.90;;;;;;5048421;28;20476;-73
2023/12/16 05:31:03;;;;;;;16.15;3.95;;;6.00;99.90;;;;;;5043836;28;20522;-73
2023/12/16 05:33:28;;;;;;;17.30;3.90;;;6.00;99.90;;;;;;5067464;28;20524;-73
2023/12/16 05:35:54;;;;;;;16.73;4.10;;;6.00;99.90;;;;;;5049463;28;20040;-73
2023/12/16 05:38:20;;;;;;;13.68;3.50;;;6.00;99.90;;;;;;5043594;28;20036;-73
2023/12/16 05:40:45;;;;;;;15.00;3.97;;;6.00;99.90;;;;;;5044556;28;20044;-72
2023/12/16 05:43:11;;;;;;;13.57;3.20;;;6.10;99.90;;;;;;5036167;28;20389;-73
2023/12/16 05:45:37;;;;;;;10.13;3.20;;;6.10;99.90;;;;;;5044958;28;20049;-73
2023/12/16 05:48:02;;;;;;;15.75;4.22;;;6.10;99.90;;;;;;5046551;28;20791;-73
2023/12/16 05:50:28;;;;;;;13.23;4.50;;;6.10;99.90;;;;;;5044525;28;20029;-73
2023/12/16 05:52:53;;;;;;;16.60;3.13;;;6.10;99.90;;;;;;5041537;28;20443;-73
2023/12/16 05:55:19;;;;;;;15.70;3.55;;;6.10;99.90;;;;;;5048222;28;20076;-73
2023/12/16 05:57:45;;;;;;;13.35;3.42;;;6.10;99.90;;;;;;5038520;28;20040;-73
2023/12/16 06:00:11;;;;;;;13.55;3.55;;;6.10;99.90;;;;;;5064853;28;20536;-73
2023/12/16 06:02:37;;;;;;;13.55;3.60;;;6.00;99.90;;;;;;5040944;28;20423;-73
2023/12/16 06:05:03;;;;;;;13.68;3.90;;;6.00;99.90;;;;;;5043067;28;20124;-73
2023/12/16 06:07:29;;;;;;;13.70;3.42;;;6.00;99.90;;;;;;5048416;28;20037;-73
2023/12/16 06:09:55;;;;;;;13.05;3.53;;;6.00;99.90;;;;;;5052711;28;20504;-73
2023/12/16 06:12:20;;;;;;;17.58;3.38;;;6.00;99.90;;;;;;5045147;28;20500;-73
2023/12/16 06:14:46;;;;;;;17.50;4.53;;;6.00;99.90;;;;;;5044807;28;20468;-73
2023/12/16 06:17:12;;;;;;;8.75;3.50;;;5.90;99.90;;;;;;5048053;28;20128;-73
2023/12/16 06:19:38;;;;;;;14.23;3.85;;;6.00;99.90;;;;;;5042655;28;20128;-73
2023/12/16 06:22:04;;;;;;;13.82;4.50;;;6.00;99.90;;;;;;5045033;28;20036;-73
2023/12/16 06:24:29;;;;;;;15.57;3.90;;;5.90;99.90;;;;;;5046629;28;20090;-73
2023/12/16 06:26:55;;;;;;;12.65;3.47;;;5.90;99.90;;;;;;5046267;28;20052;-73
2023/12/16 06:29:20;;;;;;;19.75;4.45;;;5.90;99.90;;;;;;5038162;28;20045;-73
2023/12/16 06:31:46;;;;;;;6.88;3.30;;;5.90;99.90;;;;;;5044100;28;20080;-73
2023/12/16 06:34:12;;;;;;;14.60;3.90;;;5.90;99.90;;;;;;5037606;28;20111;-73
2023/12/16 06:36:37;;;;;;;11.70;4.03;;;5.90;99.90;;;;;;5040269;28;20045;-73
2023/12/16 06:39:03;;;;;;;12.15;3.83;;;5.80;99.90;;;;;;5041911;28;20570;-73
2023/12/16 06:41:30;;;;;;;16.83;4.95;;;5.80;99.90;;;;;;5041636;28;20037;-73
2023/12/16 06:43:56;;;;;;;16.80;3.78;;;5.80;99.90;;;;;;5067759;28;20058;-73
2023/12/16 06:46:23;;;;;;;14.18;4.28;;;5.80;99.90;;;;;;5043692;28;20059;-73
2023/12/16 06:48:49;;;;;;;12.93;4.05;;;5.80;99.90;;;;;;5046659;28;20148;-74
2023/12/16 06:51:15;;;;;;;14.02;4.32;;;5.80;99.90;;;;;;5034000;28;20064;-74
2023/12/16 06:53:40;;;;;;;14.68;3.72;;;5.70;99.90;;;;;;5035692;28;20049;-73
2023/12/16 06:56:07;;;;;;;23.05;5.57;;;5.80;99.90;;;;;;5042665;28;20033;-74
2023/12/16 06:58:33;;;;;;;14.27;4.27;;;5.80;99.90;;;;;;5034893;28;20056;-73
2023/12/16 07:00:59;;;;;;;16.08;4.07;;;5.90;99.90;;;;;;5037325;28;20299;-73
2023/12/16 07:03:24;;;;;;;12.80;3.88;;;5.80;99.90;;;;;;5042797;28;20409;-73
2023/12/16 07:05:50;;;;;;;22.90;5.10;;;5.90;99.90;;;;;;5036538;28;20400;-73
2023/12/16 07:08:16;;;;;;;20.67;5.68;;;5.90;99.90;;;;;;5045819;28;20045;-73
2023/12/16 07:10:41;;;;;;;12.45;5.20;;;5.90;99.90;;;;;;5043357;28;20088;-73
2023/12/16 07:13:07;;;;;;;11.68;4.35;;;5.90;99.90;;;;;;5038104;28;20098;-73
2023/12/16 07:15:33;;;;;;;16.55;4.68;;;5.90;99.90;;;;;;5038743;28;20493;-73
2023/12/16 07:17:58;;;;;;;11.55;4.65;;;5.90;99.90;;;;;;5042247;28;20048;-73
2023/12/16 07:20:24;;;;;;;18.17;4.78;;;6.00;99.90;;;;;;5034428;28;20619;-72
2023/12/16 07:22:50;;;;;;;16.83;4.38;;;6.00;99.90;;;;;;5039732;28;20045;-73
2023/12/16 07:25:16;;;;;;;13.38;4.57;;;6.00;99.90;;;;;;5041421;28;20044;-73
2023/12/16 07:27:43;;;;;;;19.15;4.82;;;6.10;99.90;;;;;;5036037;28;20079;-73
2023/12/16 07:30:09;;;;;;;15.90;4.55;;;6.10;99.90;;;;;;5035929;28;20048;-73
2023/12/16 07:32:35;;;;;;;21.70;5.13;;;6.10;99.90;;;;;;5032101;28;20073;-73
2023/12/16 07:35:02;;;;;;;22.85;4.57;;;6.10;99.90;;;;;;5031339;28;20045;-72
2023/12/16 07:37:29;;;;;;;;;;;6.20;99.90;;;;;;5038544;28;20091;-73
2023/12/16 07:39:55;;;;;;;14.95;4.78;;;6.20;99.90;;;;;;5066155;28;20015;-72
2023/12/16 07:42:21;;;;;;;22.42;5.35;;;6.20;99.90;;;;;;5034269;28;20526;-73
2023/12/16 07:44:47;;;;;;;16.15;5.38;;;6.20;99.90;;;;;;5039787;28;20037;-72
2023/12/16 07:47:12;;;;;;;16.40;5.15;;;6.30;99.90;;;;;;5061171;28;20394;-72
2023/12/16 07:49:38;;;;;;;18.23;5.10;;;6.30;99.90;;;;;;5030235;28;20045;-72
2023/12/16 07:52:04;;;;;;;18.02;5.57;;;6.30;99.90;;;;;;5036688;28;20033;-73
2023/12/16 07:54:32;;;;;;;18.33;5.75;;;6.30;99.90;;;;;;5038506;28;20061;-74
2023/12/16 07:56:57;;;;;;;17.67;6.93;;;6.40;99.90;;;;;;5038675;28;20045;-73
2023/12/16 07:59:23;;;;;;;20.35;6.15;;;6.40;99.90;;;;;;5039390;28;20053;-73
2023/12/16 08:01:50;;;;;;;15.55;5.35;;;6.40;99.90;;;;;;5030316;28;20056;-73
2023/12/16 08:04:17;;;;;;;19.15;5.90;;;6.40;99.90;;;;;;5038326;28;20520;-74
2023/12/16 08:06:43;;;;;;;19.80;6.55;;;6.40;99.90;;;;;;5029053;28;20045;-75
2023/12/16 08:09:09;;;;;;;18.52;5.72;;;6.50;99.90;;;;;;5037738;28;20463;-74
2023/12/16 08:11:34;;;;;;;23.00;5.57;;;6.50;99.90;;;;;;5038621;28;20087;-74
2023/12/16 08:14:00;;;;;;;16.10;6.10;;;6.50;99.90;;;;;;5030791;28;20037;-74
2023/12/16 08:16:26;;;;;;;21.38;6.25;;;6.50;99.90;;;;;;5034397;28;20078;-74
2023/12/16 08:18:52;;;;;;;18.73;6.53;;;6.50;99.90;;;;;;5041934;28;20045;-74
2023/12/16 08:21:21;;;;;;;19.75;6.20;;;6.50;99.90;;;;;;5034964;28;20037;-74
2023/12/16 08:23:47;;;;;;;23.50;6.35;;;6.60;99.90;;;;;;5044402;28;20072;-73
2023/12/16 08:26:12;;;;;;;19.95;6.47;;;6.50;99.90;;;;;;5039257;28;20638;-72
2023/12/16 08:28:40;;;;;;;25.38;6.22;;;6.60;99.90;;;;;;5031164;28;20045;-74
2023/12/16 08:31:08;;;;;;;;;;;6.60;99.90;;;;;;5041386;28;20098;-77
2023/12/16 08:33:35;;;;;;;18.08;5.90;;;6.60;99.90;;;;;;5045188;28;19955;-78
2023/12/16 08:36:01;;;;;;;19.67;6.10;;;6.60;99.90;;;;;;5045625;28;20048;-78
2023/12/16 08:38:28;;;;;;;19.10;5.88;;;6.50;99.90;;;;;;5046874;28;20082;-77
2023/12/16 08:40:57;;;;;;;17.85;6.30;;;6.60;99.90;;;;;;5045159;28;20116;-77
2023/12/16 08:43:23;;;;;;;16.27;6.00;;;6.60;99.90;;;;;;5047119;28;20083;-75
2023/12/16 08:45:49;;;;;;;20.10;6.15;;;6.70;99.90;;;;;;5049734;28;20037;-75
2023/12/16 08:48:14;;;;;;;22.88;6.90;;;6.70;99.90;;;;;;5046859;28;20048;-75
2023/12/16 08:50:40;;;;;;;13.90;6.63;;;6.70;99.90;;;;;;5048898;28;20045;-75
2023/12/16 08:53:12;;;;;;;16.83;6.07;;;6.70;99.90;;;;;;5042625;28;20033;-75
2023/12/16 08:55:41;;;;;;;22.20;6.55;;;6.70;99.90;;;;;;5038581;28;20048;-76
2023/12/16 08:58:07;;;;;;;19.08;6.07;;;6.80;99.90;;;;;;5039022;28;20173;-75
2023/12/16 09:00:33;;;;;;;19.73;6.20;;;6.70;99.90;;;;;;5030345;28;20650;-75
2023/12/16 09:02:58;;;;;;;19.83;6.80;;;6.70;99.90;;;;;;5048603;28;20056;-76
2023/12/16 09:05:26;;;;;;;18.73;5.72;;;6.80;99.90;;;;;;5051579;28;20040;-76
2023/12/16 09:07:52;;;;;;;21.27;5.72;;;6.70;99.90;;;;;;5050702;28;20128;-75
2023/12/16 09:10:18;;;;;;;16.02;5.18;;;6.80;99.90;;;;;;5044991;28;20496;-75
2023/12/16 09:12:43;;;;;;;14.98;5.38;;;6.90;99.90;;;;;;5033549;28;20057;-74
2023/12/16 09:15:09;;;;;;;20.33;5.88;;;7.00;99.90;;;;;;5048789;28;20037;-74
2023/12/16 09:17:35;;;;;;;19.45;6.00;;;7.10;99.90;;;;;;5047639;28;20041;-78
2023/12/16 09:20:00;;;;;;;20.98;5.93;;;7.10;99.90;;;;;;5045602;28;20250;-78
2023/12/16 09:22:26;;;;;;;19.13;6.30;;;7.10;99.90;;;;;;5049279;28;20447;-77
2023/12/16 09:24:54;;;;;;;14.68;5.45;;;7.10;99.90;;;;;;5041717;28;20042;-79
2023/12/16 09:27:20;;;;;;;19.45;5.45;;;7.20;99.90;;;;;;5043901;28;20080;-77
2023/12/16 09:29:46;;;;;;;21.80;6.20;;;7.20;99.90;;;;;;5036656;28;20112;-77
2023/12/16 09:32:11;;;;;;;19.95;5.45;;;7.20;99.90;;;;;;5050627;28;20041;-76
2023/12/16 09:34:37;;;;;;;25.40;6.63;;;7.20;99.90;;;;;;5054151;28;20049;-79
2023/12/16 09:37:03;;;;;;;22.85;6.03;;;7.20;99.90;;;;;;5047741;28;20077;-79
2023/12/16 09:39:29;;;;;;;14.70;5.47;;;7.30;99.90;;;;;;5046271;28;20049;-79
2023/12/16 09:41:58;;;;;;;21.42;5.95;;;7.30;99.90;;;;;;5048245;28;20068;-79
2023/12/16 09:44:24;;;;;;;20.88;5.45;;;7.30;99.90;;;;;;5045881;28;20053;-78
2023/12/16 09:46:50;;;;;;;25.13;5.40;;;7.40;99.90;;;;;;5046740;28;20057;-78
2023/12/16 09:49:16;;;;;;;18.08;5.88;;;7.30;99.90;;;;;;5048499;28;20048;-76
2023/12/16 09:51:42;;;;;;;17.27;5.82;;;7.30;99.90;;;;;;5053310;28;20071;-79
2023/12/16 09:54:08;;;;;;;15.98;5.63;;;7.40;99.90;;;;;;5044040;28;20514;-76
2023/12/16 09:56:35;;;;;;;21.17;5.97;;;7.40;99.90;;;;;;5047286;28;20060;-76
2023/12/16 09:59:03;;;;;;;17.88;6.50;;;7.40;99.90;;;;;;5047104;28;20110;-76
2023/12/16 10:01:29;;;;;;;21.67;5.72;;;7.40;99.90;;;;;;5047224;28;20049;-76
2023/12/16 10:03:56;;;;;;;19.77;5.97;;;7.40;99.90;;;;;;5046360;28;20443;-75
2023/12/16 10:06:21;;;;;;;17.42;5.65;;;7.40;99.90;;;;;;5041001;28;20056;-75
2023/12/16 10:08:47;;;;;;;19.35;6.30;;;7.40;99.90;;;;;;5048341;28;20049;-75
2023/12/16 10:11:14;;;;;;;18.50;7.00;;;7.40;99.90;;;;;;5048103;28;20045;-75
2023/12/16 10:14:00;;;;;;;25.45;6.78;;;7.50;99.90;;;;;;5043342;28;20052;-77
2023/12/16 10:16:26;;;;;;;24.60;6.88;;;7.50;99.90;;;;;;5044988;28;20068;-74
2023/12/16 10:18:53;;;;;;;22.95;6.57;;;7.50;99.90;;;;;;5041473;28;20056;-75
2023/12/16 10:21:24;;;;;;;24.23;6.78;;;7.50;99.90;;;;;;5044055;28;20293;-74
2023/12/16 10:23:50;;;;;;;20.25;6.60;;;7.50;99.90;;;;;;5045103;28;20127;-74
2023/12/16 10:26:16;;;;;;;19.13;6.45;;;7.50;99.90;;;;;;5045613;28;20288;-74
2023/12/16 10:28:46;;;;;;;19.42;6.55;;;7.50;99.90;;;;;;5044811;28;20075;-74
2023/12/16 10:31:13;;;;;;;19.88;6.35;;;7.50;99.90;;;;;;5044590;28;20675;-74
2023/12/16 10:33:39;;;;;;;25.13;6.87;;;7.50;99.90;;;;;;5045524;28;20048;-74
2023/12/16 10:36:05;;;;;;;24.23;7.22;;;7.50;99.90;;;;;;5049760;28;20045;-74
2023/12/16 10:38:31;;;;;;;26.95;6.40;;;7.50;99.90;;;;;;5044494;28;20098;-78
2023/12/16 10:40:57;;;;;;;25.95;7.78;;;7.50;99.90;;;;;;5047187;28;20083;-79
2023/12/16 10:43:22;;;;;;;22.58;6.88;;;7.50;99.90;;;;;;5048499;28;20037;-78
2023/12/16 10:45:50;;;;;;;25.08;6.72;;;7.60;99.90;;;;;;5047025;28;20048;-76
2023/12/16 10:48:24;;;;;;;23.17;6.68;;;7.50;99.90;;;;;;5045416;28;20052;-76
2023/12/16 10:50:53;;;;;;;22.15;7.28;;;7.50;99.90;;;;;;5040411;28;20032;-78
2023/12/16 10:53:31;;;;;;;20.20;7.43;;;7.50;99.90;;;;;;5044303;28;20043;-78
2023/12/16 10:55:59;;;;;;;;;;;7.50;99.90;;;;;;5045025;28;20102;-78
2023/12/16 10:58:27;;;;;;;22.92;6.97;;;7.50;99.90;;;;;;5080719;28;19928;-77
2023/12/16 11:00:57;;;;;;;21.17;6.85;;;7.50;99.90;;;;;;5044932;28;20057;-77
2023/12/16 11:03:36;;;;;;;22.98;7.18;;;7.50;99.90;;;;;;5046084;28;20053;-77
2023/12/16 11:06:08;;;;;;;23.75;7.22;;;7.50;99.90;;;;;;5042066;28;20052;-77
2023/12/16 11:08:35;;;;;;;23.15;7.88;;;7.50;99.90;;;;;;5044702;28;20101;-77
2023/12/16 11:11:02;;;;;;;24.83;6.93;;;7.50;99.90;;;;;;5040965;28;20143;-75
2023/12/16 11:13:28;;;;;;;21.30;7.75;;;7.50;99.90;;;;;;5038908;28;21662;-76
2023/12/16 11:16:01;;;;;;;24.23;7.93;;;7.50;99.90;;;;;;5044532;28;20056;-77
2023/12/16 11:18:28;;;;;;;21.35;8.02;;;7.50;99.90;;;;;;5048961;28;20051;-77
2023/12/16 11:20:56;;;;;;;25.40;8.38;;;7.50;99.90;;;;;;5056808;28;20094;-81
2023/12/16 11:23:26;;;;;;;24.77;8.05;;;7.60;99.90;;;;;;5047627;28;20551;-79
2023/12/16 11:25:55;;;;;;;23.38;9.07;;;7.60;99.90;;;;;;5048642;28;20614;-77
2023/12/16 11:28:21;;;;;;;22.38;8.82;;;7.60;99.90;;;;;;5047101;28;20045;-77
2023/12/16 11:30:47;;;;;;;20.35;8.27;;;7.50;99.90;;;;;;5042870;28;20047;-79
2023/12/16 11:33:13;;;;;;;26.60;9.48;;;7.50;99.90;;;;;;5045613;28;20408;-79
2023/12/16 11:35:47;;;;;;;29.60;9.55;;;7.60;99.90;;;;;;5045103;28;20048;-78
2023/12/16 11:38:46;;;;;;;29.35;10.75;;;7.50;99.90;;;;;;5047224;28;20179;-80
2023/12/16 11:41:43;;;;;;;29.63;10.35;;;7.60;99.90;;;;;;5045696;28;20098;-80
2023/12/16 11:44:11;;;;;;;25.23;9.88;;;7.60;99.90;;;;;;5036441;28;20041;-77
2023/12/16 11:46:42;;;;;;;29.17;10.15;;;7.50;99.90;;;;;;5039652;28;20059;-72
2023/12/16 11:49:14;;;;;;;37.70;11.85;;;7.60;99.90;;;;;;5043204;28;20492;-72
2023/12/16 11:51:40;;;;;;;31.23;11.25;;;7.60;99.90;;;;;;5073174;28;20664;-73
2023/12/16 11:54:07;;;;;;;29.35;11.48;;;7.60;99.90;;;;;;5043949;28;20135;-73
2023/12/16 11:56:34;;;;;;;29.13;12.13;;;7.70;99.90;;;;;;5047402;28;20048;-74
2023/12/16 11:59:04;;;;;;;26.15;11.13;;;7.70;99.90;;;;;;5045780;28;20052;-75
2023/12/16 12:01:31;;;;;;;34.17;12.30;;;7.70;99.90;;;;;;5045480;28;20094;-75
2023/12/16 12:03:58;;;;;;;29.75;12.77;;;7.70;99.90;;;;;;5042717;28;20065;-75
2023/12/16 12:06:25;;;;;;;28.27;12.17;;;7.80;99.90;;;;;;5048591;28;20065;-76
2023/12/16 12:08:52;;;;;;;32.78;11.75;;;7.80;99.90;;;;;;5048623;28;20710;-75
2023/12/16 12:11:18;;;;;;;27.13;12.20;;;7.80;99.90;;;;;;5049258;28;20068;-75
2023/12/16 12:13:44;;;;;;;33.78;13.07;;;7.80;99.90;;;;;;5059149;28;20083;-73
2023/12/16 12:16:12;;;;;;;30.13;12.35;;;7.80;99.90;;;;;;5039513;28;20048;-74
2023/12/16 12:18:39;;;;;;;27.02;12.68;;;7.90;99.90;;;;;;5048092;28;20048;-72
2023/12/16 12:21:06;;;;;;;32.25;13.48;;;7.90;99.90;;;;;;5039883;28;20099;-73
2023/12/16 12:23:33;;;;;;;27.27;11.43;;;7.90;99.90;;;;;;5045938;28;20068;-73
2023/12/16 12:25:58;;;;;;;28.83;11.13;;;7.90;99.90;;;;;;5045978;28;20838;-74
2023/12/16 12:28:24;;;;;;;26.27;12.30;;;8.00;99.90;;;;;;5030863;28;20054;-73
2023/12/16 12:30:50;;;;;;;29.58;12.60;;;8.00;99.90;;;;;;5036374;28;20046;-74
2023/12/16 12:33:17;;;;;;;30.15;11.95;;;8.00;99.90;;;;;;5042659;28;20047;-73
2023/12/16 12:35:43;;;;;;;27.05;12.07;;;8.00;99.90;;;;;;5046357;28;20053;-74
2023/12/16 12:38:08;;;;;;;30.02;11.88;;;8.00;99.90;;;;;;5053155;28;20044;-74
2023/12/16 12:40:34;;;;;;;25.48;10.63;;;8.00;99.90;;;;;;5068458;28;20041;-72
2023/12/16 12:43:00;;;;;;;25.90;10.45;;;8.00;99.90;;;;;;5039220;28;20041;-73